Time;durP1;ratioP1;P1;durP2;ratioP2;P2;SDS_P1;SDS_P2;PMS_P1;PMS_P2;Temp;Humidity;BMP_temperature;BMP_pressure;BME280_temperature;BME280_humidity;BME280_pressure;Samples;Min_cycle;Max_cycle;Signal;HPM_P1;HPM_P2
2023/03/31 00:01:40;;;;;;;20.53;12.13;;;10.40;99.90;;;;;;4974505;28;20651;-74
2023/03/31 00:04:11;;;;;;;18.33;12.27;;;10.40;99.90;;;;;;4976121;28;20527;-76
2023/03/31 00:06:41;;;;;;;18.87;11.77;;;10.40;99.90;;;;;;4975737;28;20193;-74
2023/03/31 00:09:11;;;;;;;18.57;11.23;;;10.40;99.90;;;;;;4960689;28;20197;-81
2023/03/31 00:11:39;;;;;;;16.70;11.07;;;10.40;99.90;;;;;;4958546;28;20252;-75
2023/03/31 00:14:07;;;;;;;17.83;11.67;;;10.30;99.90;;;;;;4975760;28;20194;-74
2023/03/31 00:16:35;;;;;;;17.33;11.50;;;10.30;99.90;;;;;;4975292;28;20654;-75
2023/03/31 00:19:03;;;;;;;17.87;11.40;;;10.30;99.90;;;;;;4958210;28;20204;-74
2023/03/31 00:21:35;;;;;;;18.00;10.97;;;10.20;99.90;;;;;;4957988;28;20553;-77
2023/03/31 00:24:05;;;;;;;18.23;11.43;;;10.20;99.90;;;;;;4958428;28;20256;-73
2023/03/31 00:26:33;;;;;;;18.50;11.00;;;10.20;99.90;;;;;;4958198;28;20208;-73
2023/03/31 00:29:01;;;;;;;19.40;11.70;;;10.10;99.90;;;;;;4957883;28;20675;-73
2023/03/31 00:31:28;;;;;;;18.93;10.70;;;10.20;99.90;;;;;;4957784;28;20221;-73
2023/03/31 00:33:55;;;;;;;15.47;10.43;;;10.20;99.90;;;;;;4975189;28;20244;-76
2023/03/31 00:36:26;;;;;;;17.40;10.87;;;10.20;99.90;;;;;;4975376;28;20220;-72
2023/03/31 00:38:55;;;;;;;17.33;11.37;;;10.20;99.90;;;;;;4958257;28;20201;-72
2023/03/31 00:41:22;;;;;;;18.00;10.93;;;10.20;99.90;;;;;;4957716;28;20205;-73
2023/03/31 00:44:07;;;;;;;17.97;11.03;;;10.30;99.90;;;;;;4973809;28;20209;-77
2023/03/31 00:46:55;;;;;;;17.03;10.40;;;10.30;99.90;;;;;;4957772;28;20214;-74
2023/03/31 00:49:30;;;;;;;18.57;11.13;;;10.30;99.90;;;;;;4958062;28;20225;-73
2023/03/31 00:52:20;;;;;;;17.60;10.40;;;10.20;99.90;;;;;;4957334;28;20228;-71
2023/03/31 00:54:53;;;;;;;17.53;10.17;;;10.30;99.90;;;;;;4957455;28;20227;-71
2023/03/31 00:57:21;;;;;;;17.10;10.23;;;10.30;99.90;;;;;;4973440;28;20205;-72
2023/03/31 00:59:52;;;;;;;16.47;9.53;;;10.30;99.90;;;;;;4957748;28;20240;-72
2023/03/31 01:02:24;;;;;;;16.43;9.60;;;10.30;99.90;;;;;;4957418;28;20655;-72
2023/03/31 01:04:58;;;;;;;14.03;9.13;;;10.20;99.90;;;;;;4974961;28;20205;-71
2023/03/31 01:07:33;;;;;;;17.37;9.23;;;10.20;99.90;;;;;;4957080;28;20197;-71
2023/03/31 01:10:03;;;;;;;14.33;8.83;;;10.30;99.90;;;;;;4957375;28;20207;-71
2023/03/31 01:12:33;;;;;;;15.67;9.57;;;10.20;99.90;;;;;;4956810;28;20254;-73
2023/03/31 01:15:02;;;;;;;15.77;9.40;;;10.30;99.90;;;;;;4957138;28;20292;-72
2023/03/31 01:17:29;;;;;;;13.43;8.00;;;10.20;99.90;;;;;;4974570;28;20233;-76
2023/03/31 01:20:21;;;;;;;13.50;8.63;;;10.30;99.90;;;;;;4974950;28;20192;-74
2023/03/31 01:23:14;;;;;;;14.87;8.73;;;10.30;99.90;;;;;;4944234;29;20206;-76
2023/03/31 01:26:06;;;;;;;16.27;9.03;;;10.20;99.90;;;;;;4938318;29;20206;-78
2023/03/31 01:28:51;;;;;;;16.07;9.03;;;10.20;99.90;;;;;;4938087;29;20221;-73
2023/03/31 01:31:29;;;;;;;15.70;8.93;;;10.20;99.90;;;;;;4937822;29;20233;-74
2023/03/31 01:34:26;;;;;;;12.50;8.87;;;10.30;99.90;;;;;;4954874;29;20280;-74
2023/03/31 01:37:10;;;;;;;14.53;9.20;;;10.20;99.90;;;;;;4937576;29;20183;-74
2023/03/31 01:40:14;;;;;;;14.50;9.10;;;10.30;99.90;;;;;;4955104;29;20537;-74
2023/03/31 01:43:08;;;;;;;15.13;8.57;;;10.30;99.90;;;;;;4937827;29;20287;-74
2023/03/31 01:45:42;;;;;;;14.23;9.13;;;10.30;99.90;;;;;;4937297;29;20701;-76
2023/03/31 01:48:25;;;;;;;12.83;8.43;;;10.30;99.90;;;;;;4937302;29;20230;-74
2023/03/31 01:50:56;;;;;;;13.83;8.43;;;10.20;99.90;;;;;;4937313;29;20265;-74
2023/03/31 01:54:00;;;;;;;14.63;8.37;;;10.20;99.90;;;;;;4937027;29;20648;-73
2023/03/31 01:56:40;;;;;;;14.07;8.97;;;10.20;99.90;;;;;;4936912;29;20200;-74
2023/03/31 01:59:17;;;;;;;15.17;9.17;;;10.20;99.90;;;;;;4937318;29;20191;-74
2023/03/31 02:01:50;;;;;;;14.47;8.90;;;10.20;99.90;;;;;;4937053;29;20198;-74
2023/03/31 02:04:22;;;;;;;12.87;8.63;;;10.20;99.90;;;;;;4937244;29;20202;-73
2023/03/31 02:07:03;;;;;;;14.60;8.57;;;10.10;99.90;;;;;;4937201;29;20289;-73
2023/03/31 02:09:39;;;;;;;16.17;8.47;;;10.20;99.90;;;;;;4937416;29;20213;-73
2023/03/31 02:12:10;;;;;;;12.63;8.37;;;10.10;99.90;;;;;;4954325;29;20232;-73
2023/03/31 02:14:42;;;;;;;13.60;8.47;;;10.10;99.90;;;;;;4954357;29;20205;-74
2023/03/31 02:17:16;;;;;;;13.60;8.43;;;10.10;99.90;;;;;;4936589;29;20680;-75
2023/03/31 02:19:48;;;;;;;12.47;8.40;;;10.00;99.90;;;;;;4937339;29;20197;-76
2023/03/31 02:22:18;;;;;;;13.33;7.90;;;10.00;99.90;;;;;;4937258;29;20210;-76
2023/03/31 02:24:46;;;;;;;15.77;8.60;;;10.00;99.90;;;;;;4939510;29;20316;-76
2023/03/31 02:27:37;;;;;;;13.10;8.20;;;10.00;99.90;;;;;;4940833;29;20305;-76
2023/03/31 02:30:06;;;;;;;12.37;8.40;;;10.00;99.90;;;;;;4958385;29;20239;-76
2023/03/31 02:32:38;;;;;;;13.17;7.53;;;10.00;99.90;;;;;;4940712;29;20230;-75
2023/03/31 02:35:10;;;;;;;14.20;8.30;;;10.00;99.90;;;;;;4958352;29;20222;-76
2023/03/31 02:37:39;;;;;;;14.67;7.63;;;10.00;99.90;;;;;;4940905;29;20225;-76
2023/03/31 02:40:11;;;;;;;12.33;8.40;;;10.00;99.90;;;;;;4958024;29;20217;-77
2023/03/31 02:42:40;;;;;;;13.20;8.20;;;10.00;99.90;;;;;;4940917;29;20616;-77
2023/03/31 02:45:36;;;;;;;12.20;7.63;;;10.00;99.90;;;;;;4940924;29;20198;-78
2023/03/31 02:48:05;;;;;;;11.83;8.03;;;9.90;99.90;;;;;;4940889;29;20548;-75
2023/03/31 02:50:45;;;;;;;12.67;7.97;;;9.90;99.90;;;;;;4940768;29;20202;-75
2023/03/31 02:53:48;;;;;;;10.93;7.90;;;10.00;99.90;;;;;;4957829;29;20238;-75
2023/03/31 02:56:24;;;;;;;11.93;7.50;;;10.00;99.90;;;;;;4898423;29;20219;-74
2023/03/31 02:59:10;;;;;;;12.37;7.53;;;10.00;99.90;;;;;;4882748;29;20207;-75
2023/03/31 03:02:04;;;;;;;12.67;8.27;;;9.90;99.90;;;;;;4882769;29;20196;-75
2023/03/31 03:04:40;;;;;;;12.83;7.77;;;9.90;99.90;;;;;;4898064;29;20208;-75
2023/03/31 03:07:16;;;;;;;13.17;8.40;;;9.90;99.90;;;;;;4898191;29;20219;-74
2023/03/31 03:10:05;;;;;;;10.90;8.20;;;9.90;99.90;;;;;;4882578;29;20200;-75
2023/03/31 03:13:17;;;;;;;13.87;8.00;;;9.90;99.90;;;;;;4898007;29;20231;-75
2023/03/31 03:15:53;;;;;;;11.40;7.70;;;9.90;99.90;;;;;;4897775;29;20228;-75
2023/03/31 03:18:20;;;;;;;12.13;8.30;;;9.90;99.90;;;;;;4897949;29;20210;-75
2023/03/31 03:20:49;;;;;;;14.97;8.40;;;9.80;99.90;;;;;;4882327;29;20204;-75
2023/03/31 03:23:17;;;;;;;14.03;8.57;;;9.80;99.90;;;;;;4882205;29;20687;-77
2023/03/31 03:25:45;;;;;;;13.80;8.23;;;9.90;99.90;;;;;;4897842;29;20287;-77
2023/03/31 03:28:12;;;;;;;13.97;8.93;;;9.80;99.90;;;;;;4882237;29;20196;-78
2023/03/31 03:30:39;;;;;;;13.20;8.60;;;9.80;99.90;;;;;;4882149;29;20198;-78
2023/03/31 03:33:06;;;;;;;15.27;9.30;;;9.80;99.90;;;;;;4920027;29;20318;-76
2023/03/31 03:35:33;;;;;;;15.77;9.00;;;9.70;99.90;;;;;;4939855;29;20202;-76
2023/03/31 03:38:00;;;;;;;15.40;9.00;;;9.80;99.90;;;;;;4924095;29;20186;-76
2023/03/31 03:40:27;;;;;;;14.20;9.17;;;9.80;99.90;;;;;;4939960;29;20213;-76
2023/03/31 03:42:55;;;;;;;16.93;9.40;;;9.80;99.90;;;;;;4939917;29;20209;-76
2023/03/31 03:45:21;;;;;;;14.53;9.33;;;9.60;99.90;;;;;;4956982;29;20198;-75
2023/03/31 03:47:48;;;;;;;16.80;10.03;;;9.70;99.90;;;;;;4939294;29;20202;-75
2023/03/31 03:50:16;;;;;;;16.83;9.53;;;9.60;99.90;;;;;;4956770;29;20206;-75
2023/03/31 03:52:43;;;;;;;16.10;9.73;;;9.60;99.90;;;;;;4939387;29;20249;-75
2023/03/31 03:55:10;;;;;;;14.37;9.43;;;9.60;99.90;;;;;;4939400;29;20198;-77
2023/03/31 03:57:37;;;;;;;17.60;9.70;;;9.60;99.90;;;;;;4939139;29;20261;-76
2023/03/31 04:00:11;;;;;;;13.90;9.53;;;9.50;99.90;;;;;;4956223;29;20198;-75
2023/03/31 04:02:39;;;;;;;13.07;9.13;;;9.50;99.90;;;;;;4939313;29;20198;-79
2023/03/31 04:05:06;;;;;;;17.83;10.60;;;9.40;99.90;;;;;;4956521;29;20213;-75
2023/03/31 04:07:33;;;;;;;19.93;10.53;;;9.30;99.90;;;;;;4956284;29;20198;-76
2023/03/31 04:10:00;;;;;;;16.57;10.30;;;9.20;99.90;;;;;;4939116;29;20194;-75
2023/03/31 04:12:27;;;;;;;16.20;10.13;;;9.20;99.90;;;;;;4956159;29;20218;-76
2023/03/31 04:14:56;;;;;;;14.57;9.50;;;9.10;99.90;;;;;;4956177;29;20192;-76
2023/03/31 04:17:33;;;;;;;16.10;9.70;;;9.20;99.90;;;;;;4938916;29;20230;-75
2023/03/31 04:20:07;;;;;;;15.03;9.53;;;9.10;99.90;;;;;;4956374;29;20190;-75
2023/03/31 04:22:39;;;;;;;16.83;9.80;;;9.10;99.90;;;;;;4956517;29;20226;-76
2023/03/31 04:25:15;;;;;;;18.53;10.10;;;9.10;99.90;;;;;;4955930;29;20187;-75
2023/03/31 04:27:45;;;;;;;16.33;9.60;;;9.00;99.90;;;;;;4938727;29;20202;-77
2023/03/31 04:30:21;;;;;;;16.17;10.17;;;8.90;99.90;;;;;;4938797;29;20289;-76
2023/03/31 04:32:50;;;;;;;16.20;9.63;;;8.90;99.90;;;;;;4924019;29;20236;-74
2023/03/31 04:35:19;;;;;;;20.13;10.20;;;8.90;99.90;;;;;;4938961;29;20190;-78
2023/03/31 04:37:48;;;;;;;14.33;9.57;;;8.90;99.90;;;;;;4955788;29;20280;-78
2023/03/31 04:40:16;;;;;;;17.73;10.33;;;9.00;99.90;;;;;;4938823;29;20209;-78
2023/03/31 04:42:43;;;;;;;16.43;9.87;;;9.00;99.90;;;;;;4938652;29;20209;-79
2023/03/31 04:45:11;;;;;;;15.63;10.10;;;9.00;99.90;;;;;;4938474;29;20194;-77
2023/03/31 04:47:38;;;;;;;18.30;10.73;;;9.00;99.90;;;;;;4937722;29;20556;-80
2023/03/31 04:50:06;;;;;;;15.50;10.63;;;9.00;99.90;;;;;;4938633;29;20198;-79
2023/03/31 04:52:33;;;;;;;16.27;10.30;;;9.00;99.90;;;;;;4921836;29;20680;-77
2023/03/31 04:54:59;;;;;;;17.33;10.53;;;9.10;99.90;;;;;;4938451;29;20194;-76
2023/03/31 04:57:26;;;;;;;19.03;10.33;;;9.10;99.90;;;;;;4922586;29;20281;-77
2023/03/31 04:59:53;;;;;;;19.77;10.70;;;9.10;99.90;;;;;;4938876;29;20214;-79
2023/03/31 05:02:23;;;;;;;16.50;9.87;;;9.10;99.90;;;;;;4938460;29;20198;-76
2023/03/31 05:04:51;;;;;;;16.37;9.73;;;9.10;99.90;;;;;;4938354;29;20206;-75
2023/03/31 05:07:19;;;;;;;16.90;10.33;;;9.20;99.90;;;;;;4939154;29;20198;-74
2023/03/31 05:09:46;;;;;;;18.33;10.30;;;9.30;99.90;;;;;;4955472;29;20204;-76
2023/03/31 05:12:13;;;;;;;19.03;10.77;;;9.30;99.90;;;;;;4938023;29;20217;-74
2023/03/31 05:14:39;;;;;;;19.07;10.63;;;9.40;99.90;;;;;;4955173;29;20202;-75
2023/03/31 05:17:06;;;;;;;16.57;10.73;;;9.50;99.90;;;;;;4938165;29;20249;-73
2023/03/31 05:19:33;;;;;;;16.93;10.63;;;9.50;99.90;;;;;;4938215;29;20194;-76
2023/03/31 05:22:00;;;;;;;19.27;11.17;;;9.50;99.90;;;;;;4937917;29;20194;-74
2023/03/31 05:24:28;;;;;;;21.03;12.00;;;9.60;99.90;;;;;;4955445;29;20186;-74
2023/03/31 05:26:56;;;;;;;20.47;11.90;;;9.70;99.90;;;;;;4954817;29;20202;-76
2023/03/31 05:29:23;;;;;;;22.03;12.30;;;9.70;99.90;;;;;;4922019;29;20206;-76
2023/03/31 05:31:52;;;;;;;24.60;12.60;;;9.70;99.90;;;;;;4913731;29;20581;-75
2023/03/31 05:34:19;;;;;;;21.20;12.13;;;9.70;99.90;;;;;;4937794;29;20566;-75
2023/03/31 05:37:11;;;;;;;21.27;12.53;;;9.80;99.90;;;;;;4929713;29;20209;-80
2023/03/31 05:39:38;;;;;;;22.83;12.30;;;9.80;99.90;;;;;;4938071;29;20656;-79
2023/03/31 05:42:06;;;;;;;19.70;12.00;;;9.80;99.90;;;;;;4938154;29;20257;-78
2023/03/31 05:44:33;;;;;;;20.07;12.73;;;9.80;99.90;;;;;;4937753;29;20225;-78
2023/03/31 05:47:00;;;;;;;21.37;12.33;;;9.90;99.90;;;;;;4937650;29;20198;-74
2023/03/31 05:49:27;;;;;;;23.53;12.73;;;9.90;99.90;;;;;;4937454;29;20201;-79
2023/03/31 05:51:54;;;;;;;19.67;12.47;;;9.90;99.90;;;;;;4937831;29;20233;-79
2023/03/31 05:54:21;;;;;;;21.47;11.97;;;9.80;99.90;;;;;;4955000;29;20210;-77
2023/03/31 05:56:48;;;;;;;20.30;12.23;;;9.80;99.90;;;;;;4937097;29;20194;-74
2023/03/31 05:59:15;;;;;;;22.03;12.37;;;9.90;99.90;;;;;;4936405;29;20298;-79
2023/03/31 06:01:42;;;;;;;19.97;12.33;;;9.90;99.90;;;;;;4954066;23;20244;-80
2023/03/31 06:04:10;;;;;;;20.20;12.47;;;9.80;99.90;;;;;;4956036;28;20213;-76
2023/03/31 06:06:37;;;;;;;22.30;12.27;;;9.80;99.90;;;;;;4973808;28;20194;-78
2023/03/31 06:09:04;;;;;;;18.90;11.43;;;9.90;99.90;;;;;;4956494;28;20198;-77
2023/03/31 06:11:31;;;;;;;18.10;11.77;;;9.80;99.90;;;;;;4956241;28;20197;-77
2023/03/31 06:13:58;;;;;;;21.20;11.67;;;9.80;99.90;;;;;;4956486;28;20560;-73
2023/03/31 06:16:25;;;;;;;20.17;11.73;;;9.90;99.90;;;;;;4955863;28;20213;-75
2023/03/31 06:18:52;;;;;;;20.47;11.47;;;9.90;99.90;;;;;;4973225;28;20596;-72
2023/03/31 06:21:20;;;;;;;23.43;12.30;;;10.00;99.90;;;;;;4956262;28;20193;-72
2023/03/31 06:23:47;;;;;;;21.30;12.10;;;10.00;99.90;;;;;;4956053;28;20220;-74
2023/03/31 06:26:17;;;;;;;18.80;11.97;;;10.00;99.90;;;;;;4956075;28;20274;-77
2023/03/31 06:28:45;;;;;;;19.57;11.67;;;10.10;99.90;;;;;;4956072;28;20198;-75
2023/03/31 06:31:15;;;;;;;21.87;12.00;;;10.20;99.90;;;;;;4957275;28;20201;-76
2023/03/31 06:33:43;;;;;;;18.83;11.90;;;10.40;99.90;;;;;;4973503;28;20221;-75
2023/03/31 06:36:12;;;;;;;15.97;11.23;;;10.50;99.90;;;;;;4956338;28;20237;-75
2023/03/31 06:38:39;;;;;;;19.13;11.40;;;10.50;99.90;;;;;;4956104;28;20264;-79
2023/03/31 06:41:07;;;;;;;19.17;11.57;;;10.60;99.90;;;;;;4973428;28;20273;-77
2023/03/31 06:43:35;;;;;;;16.80;11.80;;;10.60;99.90;;;;;;4956208;28;20252;-76
2023/03/31 06:46:02;;;;;;;18.33;11.40;;;10.70;99.90;;;;;;4973821;28;20197;-76
2023/03/31 06:48:30;;;;;;;18.77;11.83;;;10.70;99.90;;;;;;4955990;28;20261;-75
2023/03/31 06:51:02;;;;;;;19.43;11.73;;;10.60;99.90;;;;;;4956251;28;20201;-77
2023/03/31 06:53:29;;;;;;;18.77;11.70;;;10.70;99.90;;;;;;4973622;28;20217;-75
2023/03/31 06:55:56;;;;;;;20.20;12.13;;;10.70;99.90;;;;;;4955590;28;20228;-76
2023/03/31 06:58:23;;;;;;;20.57;12.20;;;10.60;99.90;;;;;;4955775;28;20204;-77
2023/03/31 07:00:51;;;;;;;20.10;12.37;;;10.70;99.90;;;;;;4973436;28;20710;-75
2023/03/31 07:03:21;;;;;;;17.60;11.87;;;10.80;99.90;;;;;;4973287;28;20256;-75
2023/03/31 07:05:50;;;;;;;22.20;12.47;;;10.80;99.90;;;;;;4973411;28;20229;-75
2023/03/31 07:08:17;;;;;;;21.67;13.13;;;10.90;99.90;;;;;;4955823;28;20679;-75
2023/03/31 07:10:48;;;;;;;23.77;13.70;;;10.90;99.90;;;;;;4957731;28;20201;-75
2023/03/31 07:13:16;;;;;;;25.33;13.67;;;10.90;99.90;;;;;;4976463;28;20224;-75
2023/03/31 07:15:46;;;;;;;23.17;14.67;;;10.80;99.90;;;;;;4959345;28;20221;-75
2023/03/31 07:18:14;;;;;;;24.90;14.60;;;10.90;99.90;;;;;;4976354;28;20209;-75
2023/03/31 07:20:42;;;;;;;26.63;14.67;;;11.00;99.90;;;;;;4959184;28;20225;-75
2023/03/31 07:23:09;;;;;;;26.43;14.80;;;11.10;99.90;;;;;;4977148;28;20205;-76
2023/03/31 07:25:36;;;;;;;23.23;15.13;;;11.00;99.90;;;;;;4959210;28;20300;-77
2023/03/31 07:28:04;;;;;;;25.03;14.93;;;11.10;99.90;;;;;;4958926;28;20189;-78
2023/03/31 07:30:31;;;;;;;24.13;15.43;;;11.10;99.90;;;;;;4958854;28;20202;-77
2023/03/31 07:32:59;;;;;;;23.60;15.10;;;11.20;99.90;;;;;;4976244;28;20611;-76
2023/03/31 07:35:26;;;;;;;24.90;15.60;;;11.40;99.90;;;;;;4976268;28;20198;-75
2023/03/31 07:37:57;;;;;;;24.30;15.70;;;11.60;99.90;;;;;;4958976;28;20221;-75
2023/03/31 07:40:26;;;;;;;24.97;15.07;;;11.90;99.90;;;;;;4958654;28;20198;-75
2023/03/31 07:42:54;;;;;;;24.63;14.93;;;12.00;99.90;;;;;;4958808;28;20208;-74
2023/03/31 07:45:24;;;;;;;22.73;14.30;;;12.10;99.90;;;;;;4958846;28;20193;-74
2023/03/31 07:47:51;;;;;;;24.00;14.93;;;12.00;99.90;;;;;;4958841;28;20193;-76
2023/03/31 07:50:18;;;;;;;22.57;14.60;;;12.00;99.90;;;;;;4958854;28;20635;-76
2023/03/31 07:52:46;;;;;;;23.50;14.00;;;11.90;99.90;;;;;;4976344;28;20245;-74
2023/03/31 07:55:14;;;;;;;24.77;14.40;;;11.90;99.90;;;;;;4976415;28;20249;-75
2023/03/31 07:57:42;;;;;;;23.63;14.50;;;11.90;99.90;;;;;;4958881;28;20256;-74
2023/03/31 08:00:11;;;;;;;23.10;13.80;;;11.90;99.90;;;;;;4958631;28;20198;-74
2023/03/31 08:02:42;;;;;;;21.90;13.57;;;12.00;99.90;;;;;;4958278;28;20237;-74
2023/03/31 08:05:11;;;;;;;21.77;13.70;;;12.20;99.90;;;;;;4957433;28;20221;-74
2023/03/31 08:07:41;;;;;;;25.60;13.97;;;12.10;99.90;;;;;;4958275;28;20209;-75
2023/03/31 08:10:11;;;;;;;19.83;12.83;;;12.10;99.90;;;;;;4975794;28;20287;-74
2023/03/31 08:12:38;;;;;;;20.57;12.70;;;11.90;99.90;;;;;;4958212;28;20543;-76
2023/03/31 08:15:06;;;;;;;20.97;13.63;;;11.90;99.90;;;;;;4958297;28;20211;-74
2023/03/31 08:17:34;;;;;;;23.00;13.40;;;11.80;99.90;;;;;;4975348;28;20232;-76
2023/03/31 08:20:04;;;;;;;26.13;14.40;;;11.70;99.90;;;;;;4959156;28;20220;-74
2023/03/31 08:22:34;;;;;;;23.77;13.97;;;11.80;99.90;;;;;;4957345;28;20293;-74
2023/03/31 08:25:01;;;;;;;22.73;13.47;;;11.80;99.90;;;;;;4958019;28;20662;-75
2023/03/31 08:27:32;;;;;;;25.83;13.47;;;11.90;99.90;;;;;;4958192;28;20198;-76
2023/03/31 08:30:03;;;;;;;21.47;12.73;;;12.00;99.90;;;;;;4975716;28;20213;-76
2023/03/31 08:32:31;;;;;;;28.40;13.03;;;12.20;99.90;;;;;;4957636;28;20256;-74
2023/03/31 08:34:59;;;;;;;16.70;10.93;;;12.30;99.90;;;;;;4957706;28;20301;-74
2023/03/31 08:37:27;;;;;;;19.30;10.50;;;12.20;99.90;;;;;;4975120;28;20197;-74
2023/03/31 08:39:55;;;;;;;16.87;10.43;;;12.10;99.90;;;;;;4958185;28;20200;-75
2023/03/31 08:42:47;;;;;;;19.27;10.77;;;12.00;99.90;;;;;;4975069;28;20648;-76
2023/03/31 08:45:35;;;;;;;17.70;10.17;;;12.00;99.90;;;;;;4957912;28;20209;-79
2023/03/31 08:48:09;;;;;;;17.47;9.67;;;12.20;99.90;;;;;;4957514;28;20673;-72
2023/03/31 08:50:46;;;;;;;16.10;9.30;;;12.50;99.90;;;;;;4957495;28;20292;-77
2023/03/31 08:53:36;;;;;;;15.73;9.57;;;12.50;99.90;;;;;;4957702;28;20695;-76
2023/03/31 08:56:07;;;;;;;13.53;8.63;;;12.50;99.90;;;;;;4957362;28;20194;-75
2023/03/31 08:58:40;;;;;;;13.73;8.20;;;12.60;99.90;;;;;;4974992;28;20215;-75
2023/03/31 09:01:26;;;;;;;13.27;8.03;;;12.70;99.90;;;;;;4957301;28;20218;-75
2023/03/31 09:04:11;;;;;;;13.73;7.93;;;13.10;99.90;;;;;;4957343;28;20194;-75
2023/03/31 09:07:10;;;;;;;10.80;7.33;;;13.50;99.90;;;;;;4957531;28;20295;-74
2023/03/31 09:09:58;;;;;;;11.17;7.20;;;13.50;99.90;;;;;;4975100;28;20269;-74
2023/03/31 09:12:39;;;;;;;14.67;7.67;;;13.50;99.90;;;;;;4957572;28;20198;-74
2023/03/31 09:15:34;;;;;;;14.43;7.53;;;13.50;99.90;;;;;;4974756;28;20236;-75
2023/03/31 09:18:30;;;;;;;11.77;6.70;;;13.70;99.90;;;;;;4974846;28;20197;-75
2023/03/31 09:21:26;;;;;;;11.77;7.10;;;13.90;99.90;;;;;;4974321;28;20674;-75
2023/03/31 09:24:01;;;;;;;9.00;6.13;;;14.10;99.90;;;;;;4956959;28;20193;-76
2023/03/31 09:26:37;;;;;;;12.33;6.80;;;14.30;99.90;;;;;;4974302;28;20193;-74
2023/03/31 09:29:10;;;;;;;12.20;6.20;;;14.50;99.90;;;;;;4957010;28;20188;-74
2023/03/31 09:31:40;;;;;;;11.30;6.60;;;14.60;99.90;;;;;;4974452;28;20535;-76
2023/03/31 09:34:16;;;;;;;9.83;6.10;;;14.60;99.90;;;;;;4956386;28;20574;-75
2023/03/31 09:36:43;;;;;;;9.93;5.87;;;14.50;99.90;;;;;;4956737;28;20197;-74
2023/03/31 09:39:13;;;;;;;9.67;6.50;;;14.70;99.90;;;;;;4974088;28;20289;-75
2023/03/31 09:41:47;;;;;;;11.60;6.20;;;14.60;99.90;;;;;;4956903;28;20189;-74
2023/03/31 09:44:37;;;;;;;9.90;5.70;;;14.40;99.90;;;;;;4956851;28;20248;-75
2023/03/31 09:47:09;;;;;;;9.50;5.90;;;14.10;99.90;;;;;;4956428;28;20297;-74
2023/03/31 09:49:39;;;;;;;7.80;5.10;;;14.30;99.90;;;;;;4973871;28;20194;-75
2023/03/31 09:52:31;;;;;;;11.53;5.33;;;14.40;99.90;;;;;;4974182;28;20209;-74
2023/03/31 09:55:14;;;;;;;10.33;5.07;;;14.30;99.90;;;;;;4956620;28;20239;-75
2023/03/31 09:57:54;;;;;;;11.57;5.47;;;14.30;99.90;;;;;;4960783;28;20201;-78
2023/03/31 10:00:23;;;;;;;11.53;5.23;;;14.40;99.90;;;;;;4956700;28;20197;-75
2023/03/31 10:02:54;;;;;;;10.50;4.90;;;14.40;99.90;;;;;;4956118;28;20718;-78
2023/03/31 10:05:31;;;;;;;8.67;4.90;;;14.50;99.90;;;;;;4956257;28;20190;-79
2023/03/31 10:08:13;;;;;;;10.40;4.20;;;14.60;99.90;;;;;;4956292;28;20654;-77
2023/03/31 10:10:45;;;;;;;7.07;4.10;;;14.40;99.90;;;;;;4956202;28;20667;-78
2023/03/31 10:13:19;;;;;;;7.93;3.83;;;14.10;99.90;;;;;;4973624;28;20584;-74
2023/03/31 10:15:50;;;;;;;7.60;4.00;;;14.20;99.90;;;;;;4973344;28;20295;-74
2023/03/31 10:18:19;;;;;;;9.13;4.07;;;14.50;99.90;;;;;;4955888;28;20252;-76
2023/03/31 10:20:51;;;;;;;7.13;3.93;;;14.90;99.90;;;;;;4973762;28;20251;-78
2023/03/31 10:23:25;;;;;;;7.70;4.00;;;15.20;99.90;;;;;;4956235;28;20256;-77
2023/03/31 10:25:53;;;;;;;7.30;3.80;;;15.70;99.90;;;;;;4956265;28;20203;-77
2023/03/31 10:28:21;;;;;;;9.07;4.23;;;15.70;99.90;;;;;;4956169;28;20209;-75
2023/03/31 10:30:51;;;;;;;6.93;4.27;;;15.80;99.90;;;;;;4956267;28;20675;-75
2023/03/31 10:33:25;;;;;;;9.50;4.57;;;15.90;99.90;;;;;;4956376;28;20213;-74
2023/03/31 10:35:58;;;;;;;8.40;4.40;;;15.70;99.90;;;;;;4955874;28;20248;-76
2023/03/31 10:38:39;;;;;;;8.17;4.00;;;15.30;99.90;;;;;;4968684;28;20201;-77
2023/03/31 10:41:06;;;;;;;7.30;3.70;;;15.20;99.90;;;;;;4969099;28;20644;-75
2023/03/31 10:43:42;;;;;;;8.13;4.13;;;15.30;99.90;;;;;;4938892;29;20293;-74
2023/03/31 10:46:10;;;;;;;12.07;3.80;;;15.20;99.90;;;;;;4943227;28;20199;-73
2023/03/31 10:48:40;;;;;;;11.80;4.03;;;15.50;99.90;;;;;;4977078;28;20292;-74
2023/03/31 10:51:13;;;;;;;8.13;3.70;;;15.30;99.90;;;;;;4959666;28;20292;-73
2023/03/31 10:53:46;;;;;;;6.03;3.27;;;15.10;99.90;;;;;;4959518;28;20221;-76
2023/03/31 10:56:13;;;;;;;5.63;3.20;;;15.10;99.90;;;;;;4943359;29;20198;-73
2023/03/31 10:59:00;;;;;;;5.20;3.20;;;15.00;99.90;;;;;;4940568;29;20210;-73
2023/03/31 11:01:56;;;;;;;6.70;3.17;;;15.10;99.90;;;;;;4957571;29;20244;-75
2023/03/31 11:04:36;;;;;;;7.80;3.27;;;15.20;99.90;;;;;;4957346;29;20190;-72
2023/03/31 11:07:16;;;;;;;9.17;3.53;;;15.30;99.90;;;;;;4972263;28;20194;-73
2023/03/31 11:10:08;;;;;;;6.30;2.73;;;15.60;99.90;;;;;;4972583;28;20293;-74
2023/03/31 11:12:43;;;;;;;6.50;2.90;;;15.80;99.90;;;;;;4950600;28;20683;-75
2023/03/31 11:15:21;;;;;;;6.23;2.80;;;15.50;99.90;;;;;;4976808;28;20710;-73
2023/03/31 11:17:57;;;;;;;5.97;2.80;;;15.50;99.90;;;;;;4959374;28;20217;-72
2023/03/31 11:20:32;;;;;;;5.83;2.43;;;16.10;99.90;;;;;;4958973;28;20209;-75
2023/03/31 11:23:29;;;;;;;6.90;2.63;;;16.60;99.90;;;;;;4976608;28;20201;-74
2023/03/31 11:26:12;;;;;;;6.73;2.60;;;16.60;99.90;;;;;;4976334;28;20549;-74
2023/03/31 11:28:48;;;;;;;6.43;2.50;;;16.40;99.90;;;;;;4959254;28;20623;-75
2023/03/31 11:31:55;;;;;;;6.83;2.70;;;16.30;99.90;;;;;;4976241;28;20209;-75
2023/03/31 11:34:32;;;;;;;6.17;2.60;;;16.40;99.90;;;;;;4976392;28;20213;-74
2023/03/31 11:37:30;;;;;;;4.17;2.60;;;16.80;99.90;;;;;;4958811;28;20190;-74
2023/03/31 11:40:33;;;;;;;4.10;2.43;;;17.40;99.90;;;;;;4957364;28;20186;-75
2023/03/31 11:43:13;;;;;;;6.47;2.87;;;17.80;99.90;;;;;;4968168;28;20208;-76
2023/03/31 11:45:46;;;;;;;7.90;2.90;;;18.10;99.90;;;;;;4944990;28;20198;-75
2023/03/31 11:48:26;;;;;;;6.20;3.03;;;18.40;99.90;;;;;;4956866;28;20190;-77
2023/03/31 11:51:04;;;;;;;5.77;3.03;;;17.90;99.90;;;;;;4956699;29;20198;-77
2023/03/31 11:53:36;;;;;;;6.00;3.20;;;17.80;99.90;;;;;;4939303;29;20277;-78
2023/03/31 11:56:06;;;;;;;6.17;2.80;;;17.80;99.90;;;;;;4956611;28;20281;-79
2023/03/31 11:58:55;;;;;;;6.23;2.77;;;18.00;99.90;;;;;;4949599;29;20228;-77
2023/03/31 12:01:59;;;;;;;5.77;2.70;;;17.80;99.90;;;;;;4939441;29;20236;-76
2023/03/31 12:04:33;;;;;;;5.10;2.87;;;17.60;99.90;;;;;;4956456;29;20280;-75
2023/03/31 12:07:10;;;;;;;6.67;3.00;;;17.40;99.90;;;;;;4956586;29;20210;-77
2023/03/31 12:10:04;;;;;;;6.43;2.93;;;17.00;99.90;;;;;;4938568;29;20293;-74
2023/03/31 12:13:13;;;;;;;7.77;3.00;;;16.80;99.90;;;;;;4939659;29;20441;-75
2023/03/31 12:15:45;;;;;;;5.93;2.80;;;16.60;99.90;;;;;;4955362;28;20205;-76
2023/03/31 12:18:23;;;;;;;5.90;2.90;;;16.50;99.90;;;;;;4958138;28;20253;-75
2023/03/31 12:20:55;;;;;;;8.10;2.87;;;16.70;99.90;;;;;;4950082;28;20671;-79
2023/03/31 12:23:26;;;;;;;6.63;3.10;;;16.70;99.90;;;;;;4964457;23;20241;-75
2023/03/31 12:26:35;;;;;;;6.07;3.10;;;16.50;99.90;;;;;;4950246;28;20632;-77
2023/03/31 12:29:14;;;;;;;7.03;3.17;;;16.60;99.90;;;;;;4890251;29;20208;-75
2023/03/31 12:31:42;;;;;;;6.13;2.70;;;17.00;99.90;;;;;;4881007;29;20227;-76
2023/03/31 12:34:17;;;;;;;9.07;3.50;;;18.00;99.90;;;;;;4896645;29;20342;-80
2023/03/31 12:36:52;;;;;;;5.93;3.00;;;19.40;99.90;;;;;;4896120;29;20627;-78
2023/03/31 12:39:30;;;;;;;6.93;3.00;;;20.60;99.90;;;;;;4896510;29;20208;-79
2023/03/31 12:42:34;;;;;;;8.00;2.90;;;20.90;99.90;;;;;;4896539;29;20204;-78
2023/03/31 12:45:30;;;;;;;5.77;2.80;;;22.20;99.90;;;;;;4881342;29;20215;-77
2023/03/31 12:48:10;;;;;;;6.50;3.30;;;21.40;99.10;;;;;;4880674;29;20193;-75
2023/03/31 12:50:43;;;;;;;9.87;3.40;;;20.30;99.90;;;;;;4880753;29;20196;-76
2023/03/31 12:53:35;;;;;;;8.03;3.27;;;19.70;99.90;;;;;;4896131;29;20794;-77
2023/03/31 12:56:02;;;;;;;6.83;3.10;;;18.60;99.90;;;;;;4896159;29;20591;-77
2023/03/31 12:58:30;;;;;;;6.37;2.90;;;18.10;99.90;;;;;;4880498;29;20200;-75
2023/03/31 13:01:13;;;;;;;6.43;3.03;;;17.80;99.90;;;;;;4896026;29;20210;-75
2023/03/31 13:03:45;;;;;;;8.03;3.00;;;18.40;99.90;;;;;;4958834;28;20670;-75
2023/03/31 13:06:27;;;;;;;4.60;2.63;;;19.00;99.90;;;;;;4956919;28;20237;-75
2023/03/31 13:09:12;;;;;;;9.10;2.50;;;18.90;99.90;;;;;;4940989;28;20597;-75
2023/03/31 13:12:15;;;;;;;5.73;2.27;;;18.40;99.90;;;;;;4942861;28;20205;-75
2023/03/31 13:14:45;;;;;;;5.33;2.57;;;17.60;99.90;;;;;;4940984;28;20245;-76